sensor_id;sensor_type;location;lat;lon;timestamp;pressure;altitude;pressure_sealevel;temperature;humidity
68634;BME280;55625;47.072;22.192;2022-12-11T00:00:38;97301.13;;;7.29;100.00
68634;BME280;55625;47.072;22.192;2022-12-11T00:03:04;97295.59;;;7.20;100.00
68634;BME280;55625;47.072;22.192;2022-12-11T00:05:30;97289.88;;;7.14;100.00
68634;BME280;55625;47.072;22.192;2022-12-11T00:07:56;97293.91;;;7.07;100.00
68634;BME280;55625;47.072;22.192;2022-12-11T00:10:23;97290.00;;;7.05;100.00
68634;BME280;55625;47.072;22.192;2022-12-11T00:12:49;97287.09;;;6.99;100.00
68634;BME280;55625;47.072;22.192;2022-12-11T00:15:15;97284.25;;;6.99;100.00
68634;BME280;55625;47.072;22.192;2022-12-11T00:17:41;97271.56;;;6.89;100.00
68634;BME280;55625;47.072;22.192;2022-12-11T00:20:07;97274.66;;;6.91;100.00
68634;BME280;55625;47.072;22.192;2022-12-11T00:22:33;97287.28;;;6.96;100.00
68634;BME280;55625;47.072;22.192;2022-12-11T00:24:59;97276.50;;;6.94;100.00
68634;BME280;55625;47.072;22.192;2022-12-11T00:27:25;97261.75;;;6.84;100.00
68634;BME280;55625;47.072;22.192;2022-12-11T00:29:51;97258.44;;;6.86;100.00
68634;BME280;55625;47.072;22.192;2022-12-11T00:32:17;97266.81;;;6.80;100.00
68634;BME280;55625;47.072;22.192;2022-12-11T00:34:42;97256.72;;;6.74;100.00
68634;BME280;55625;47.072;22.192;2022-12-11T00:37:09;97257.38;;;6.69;100.00
68634;BME280;55625;47.072;22.192;2022-12-11T00:39:36;97257.69;;;6.71;100.00
68634;BME280;55625;47.072;22.192;2022-12-11T00:42:05;97259.91;;;6.67;100.00
68634;BME280;55625;47.072;22.192;2022-12-11T00:44:32;97255.94;;;6.59;100.00
68634;BME280;55625;47.072;22.192;2022-12-11T00:46:58;97262.56;;;6.56;100.00
68634;BME280;55625;47.072;22.192;2022-12-11T00:49:24;97258.88;;;6.49;100.00
68634;BME280;55625;47.072;22.192;2022-12-11T00:51:50;97249.25;;;6.41;100.00
68634;BME280;55625;47.072;22.192;2022-12-11T00:54:15;97251.69;;;6.34;100.00
68634;BME280;55625;47.072;22.192;2022-12-11T00:56:42;97251.41;;;6.32;100.00
68634;BME280;55625;47.072;22.192;2022-12-11T00:59:07;97250.13;;;6.33;100.00
68634;BME280;55625;47.072;22.192;2022-12-11T01:01:33;97270.16;;;6.20;100.00
68634;BME280;55625;47.072;22.192;2022-12-11T01:03:59;97264.03;;;6.21;100.00
68634;BME280;55625;47.072;22.192;2022-12-11T01:06:26;97260.69;;;6.08;100.00
68634;BME280;55625;47.072;22.192;2022-12-11T01:08:53;97281.75;;;5.98;100.00
68634;BME280;55625;47.072;22.192;2022-12-11T01:11:39;97265.06;;;5.95;100.00
68634;BME280;55625;47.072;22.192;2022-12-11T01:14:07;97261.22;;;5.83;100.00
68634;BME280;55625;47.072;22.192;2022-12-11T01:16:33;97250.84;;;5.89;100.00
68634;BME280;55625;47.072;22.192;2022-12-11T01:18:58;97245.28;;;5.80;100.00
68634;BME280;55625;47.072;22.192;2022-12-11T01:21:25;97237.41;;;5.69;100.00
68634;BME280;55625;47.072;22.192;2022-12-11T01:23:52;97233.16;;;5.74;100.00
68634;BME280;55625;47.072;22.192;2022-12-11T01:26:18;97233.81;;;5.69;100.00
68634;BME280;55625;47.072;22.192;2022-12-11T01:28:44;97218.69;;;5.66;100.00
68634;BME280;55625;47.072;22.192;2022-12-11T01:31:15;97234.13;;;5.71;100.00
68634;BME280;55625;47.072;22.192;2022-12-11T01:33:42;97238.97;;;5.70;100.00
68634;BME280;55625;47.072;22.192;2022-12-11T01:36:18;97253.31;;;5.72;100.00
68634;BME280;55625;47.072;22.192;2022-12-11T01:38:45;97251.28;;;5.73;100.00
68634;BME280;55625;47.072;22.192;2022-12-11T01:41:12;97248.97;;;5.71;100.00
68634;BME280;55625;47.072;22.192;2022-12-11T01:44:07;97242.84;;;5.73;100.00
68634;BME280;55625;47.072;22.192;2022-12-11T01:46:52;97242.75;;;5.67;100.00
68634;BME280;55625;47.072;22.192;2022-12-11T01:49:22;97239.94;;;5.67;100.00
68634;BME280;55625;47.072;22.192;2022-12-11T01:52:13;97234.88;;;5.71;100.00
68634;BME280;55625;47.072;22.192;2022-12-11T01:54:41;97227.91;;;5.67;100.00
68634;BME280;55625;47.072;22.192;2022-12-11T01:57:08;97230.22;;;5.68;100.00
68634;BME280;55625;47.072;22.192;2022-12-11T01:59:38;97235.38;;;5.70;100.00
68634;BME280;55625;47.072;22.192;2022-12-11T02:02:27;97224.69;;;5.59;100.00
68634;BME280;55625;47.072;22.192;2022-12-11T02:04:53;97218.19;;;5.53;100.00
68634;BME280;55625;47.072;22.192;2022-12-11T02:07:19;97216.19;;;5.44;100.00
68634;BME280;55625;47.072;22.192;2022-12-11T02:09:46;97200.66;;;5.34;100.00
68634;BME280;55625;47.072;22.192;2022-12-11T02:12:56;97200.44;;;5.23;100.00
68634;BME280;55625;47.072;22.192;2022-12-11T02:18:19;97189.34;;;5.19;100.00
68634;BME280;55625;47.072;22.192;2022-12-11T02:32:29;97142.81;;;5.18;100.00
68634;BME280;55625;47.072;22.192;2022-12-11T02:35:01;97136.56;;;5.23;100.00
68634;BME280;55625;47.072;22.192;2022-12-11T02:37:30;97116.88;;;5.23;100.00
68634;BME280;55625;47.072;22.192;2022-12-11T02:39:57;97124.81;;;5.25;100.00
68634;BME280;55625;47.072;22.192;2022-12-11T02:42:28;97123.09;;;5.27;100.00
68634;BME280;55625;47.072;22.192;2022-12-11T02:44:58;97113.09;;;5.26;100.00
68634;BME280;55625;47.072;22.192;2022-12-11T02:47:28;97110.00;;;5.24;100.00
68634;BME280;55625;47.072;22.192;2022-12-11T02:49:57;97117.94;;;5.26;100.00
68634;BME280;55625;47.072;22.192;2022-12-11T02:52:24;97120.28;;;5.27;100.00
68634;BME280;55625;47.072;22.192;2022-12-11T02:54:54;97125.13;;;5.27;100.00
68634;BME280;55625;47.072;22.192;2022-12-11T02:57:34;97117.28;;;5.31;100.00
68634;BME280;55625;47.072;22.192;2022-12-11T03:00:00;97132.09;;;5.32;100.00
68634;BME280;55625;47.072;22.192;2022-12-11T03:02:26;97099.13;;;5.32;100.00
68634;BME280;55625;47.072;22.192;2022-12-11T03:04:52;97111.84;;;5.27;100.00
68634;BME280;55625;47.072;22.192;2022-12-11T03:07:26;97135.69;;;5.32;100.00
68634;BME280;55625;47.072;22.192;2022-12-11T03:09:54;97140.84;;;5.34;100.00
68634;BME280;55625;47.072;22.192;2022-12-11T03:12:27;97145.31;;;5.40;100.00
68634;BME280;55625;47.072;22.192;2022-12-11T03:14:54;97117.84;;;5.50;100.00
68634;BME280;55625;47.072;22.192;2022-12-11T03:17:24;97094.47;;;5.44;100.00
68634;BME280;55625;47.072;22.192;2022-12-11T03:20:12;97101.28;;;5.37;100.00
68634;BME280;55625;47.072;22.192;2022-12-11T03:29:02;97083.91;;;5.39;100.00
68634;BME280;55625;47.072;22.192;2022-12-11T03:31:50;97075.56;;;5.29;100.00
68634;BME280;55625;47.072;22.192;2022-12-11T03:34:26;97070.44;;;5.28;100.00
68634;BME280;55625;47.072;22.192;2022-12-11T03:36:55;97071.50;;;5.30;100.00
68634;BME280;55625;47.072;22.192;2022-12-11T03:39:32;97066.47;;;5.35;100.00
68634;BME280;55625;47.072;22.192;2022-12-11T03:42:03;97069.28;;;5.35;100.00
68634;BME280;55625;47.072;22.192;2022-12-11T03:44:32;97073.06;;;5.32;100.00
68634;BME280;55625;47.072;22.192;2022-12-11T03:47:02;97068.78;;;5.36;100.00
68634;BME280;55625;47.072;22.192;2022-12-11T03:49:34;97082.38;;;5.38;100.00
68634;BME280;55625;47.072;22.192;2022-12-11T03:52:02;97101.31;;;5.52;100.00
68634;BME280;55625;47.072;22.192;2022-12-11T03:54:29;97075.22;;;5.51;100.00
68634;BME280;55625;47.072;22.192;2022-12-11T03:56:57;97072.97;;;5.41;100.00
68634;BME280;55625;47.072;22.192;2022-12-11T03:59:26;97088.84;;;5.44;100.00
68634;BME280;55625;47.072;22.192;2022-12-11T04:01:52;97089.94;;;5.46;100.00
68634;BME280;55625;47.072;22.192;2022-12-11T04:04:18;97069.47;;;5.46;100.00
68634;BME280;55625;47.072;22.192;2022-12-11T04:06:45;97078.59;;;5.41;100.00
68634;BME280;55625;47.072;22.192;2022-12-11T04:09:10;97075.78;;;5.41;100.00
68634;BME280;55625;47.072;22.192;2022-12-11T04:11:36;97074.03;;;5.43;100.00
68634;BME280;55625;47.072;22.192;2022-12-11T04:14:10;97067.13;;;5.44;100.00
68634;BME280;55625;47.072;22.192;2022-12-11T04:16:55;97071.78;;;5.47;100.00
68634;BME280;55625;47.072;22.192;2022-12-11T04:19:22;97088.19;;;5.49;100.00
68634;BME280;55625;47.072;22.192;2022-12-11T04:22:12;97087.25;;;5.52;100.00
68634;BME280;55625;47.072;22.192;2022-12-11T04:24:57;97098.00;;;5.53;100.00
68634;BME280;55625;47.072;22.192;2022-12-11T04:27:23;97100.34;;;5.55;100.00
68634;BME280;55625;47.072;22.192;2022-12-11T04:30:14;97099.06;;;5.56;100.00
68634;BME280;55625;47.072;22.192;2022-12-11T04:32:40;97101.59;;;5.54;100.00
68634;BME280;55625;47.072;22.192;2022-12-11T04:35:08;97096.53;;;5.58;100.00
68634;BME280;55625;47.072;22.192;2022-12-11T04:37:36;97094.03;;;5.60;100.00
68634;BME280;55625;47.072;22.192;2022-12-11T04:40:09;97088.97;;;5.64;100.00
68634;BME280;55625;47.072;22.192;2022-12-11T04:42:36;97090.53;;;5.65;100.00
68634;BME280;55625;47.072;22.192;2022-12-11T04:45:04;97088.97;;;5.64;100.00
68634;BME280;55625;47.072;22.192;2022-12-11T04:47:30;97080.53;;;5.64;100.00
68634;BME280;55625;47.072;22.192;2022-12-11T04:49:56;97099.53;;;5.69;100.00
68634;BME280;55625;47.072;22.192;2022-12-11T04:52:22;97091.09;;;5.69;100.00
68634;BME280;55625;47.072;22.192;2022-12-11T04:54:48;97090.13;;;5.72;100.00
68634;BME280;55625;47.072;22.192;2022-12-11T04:57:14;97091.97;;;5.75;100.00
68634;BME280;55625;47.072;22.192;2022-12-11T04:59:39;97093.81;;;5.78;100.00
68634;BME280;55625;47.072;22.192;2022-12-11T05:02:05;97091.28;;;5.80;100.00
68634;BME280;55625;47.072;22.192;2022-12-11T05:04:33;97103.34;;;5.96;100.00
68634;BME280;55625;47.072;22.192;2022-12-11T05:07:00;97125.66;;;6.14;100.00
68634;BME280;55625;47.072;22.192;2022-12-11T05:09:26;97132.44;;;6.22;100.00
68634;BME280;55625;47.072;22.192;2022-12-11T05:11:53;97134.56;;;6.27;100.00
68634;BME280;55625;47.072;22.192;2022-12-11T05:14:19;97136.69;;;6.32;100.00
68634;BME280;55625;47.072;22.192;2022-12-11T05:16:45;97146.97;;;6.50;100.00
68634;BME280;55625;47.072;22.192;2022-12-11T05:19:11;97157.97;;;6.68;100.00
68634;BME280;55625;47.072;22.192;2022-12-11T05:21:37;97167.38;;;6.80;100.00
68634;BME280;55625;47.072;22.192;2022-12-11T05:24:03;97173.88;;;6.86;100.00
68634;BME280;55625;47.072;22.192;2022-12-11T05:26:29;97189.59;;;6.93;100.00
68634;BME280;55625;47.072;22.192;2022-12-11T05:28:55;97189.16;;;7.00;100.00
68634;BME280;55625;47.072;22.192;2022-12-11T05:31:24;97198.13;;;6.98;100.00
68634;BME280;55625;47.072;22.192;2022-12-11T05:33:52;97197.56;;;6.94;100.00
68634;BME280;55625;47.072;22.192;2022-12-11T05:36:25;97206.44;;;6.87;100.00
68634;BME280;55625;47.072;22.192;2022-12-11T05:38:52;97207.34;;;6.99;100.00
68634;BME280;55625;47.072;22.192;2022-12-11T05:41:23;97212.88;;;7.08;100.00
68634;BME280;55625;47.072;22.192;2022-12-11T05:43:50;97224.31;;;7.19;100.00
68634;BME280;55625;47.072;22.192;2022-12-11T05:46:27;97230.81;;;7.25;100.00
68634;BME280;55625;47.072;22.192;2022-12-11T05:48:59;97239.06;;;7.29;100.00
68634;BME280;55625;47.072;22.192;2022-12-11T05:51:27;97255.97;;;7.29;100.00
68634;BME280;55625;47.072;22.192;2022-12-11T05:53:54;97256.69;;;7.24;100.00
68634;BME280;55625;47.072;22.192;2022-12-11T05:56:32;97272.69;;;7.12;100.00
68634;BME280;55625;47.072;22.192;2022-12-11T05:58:59;97293.91;;;7.07;100.00
68634;BME280;55625;47.072;22.192;2022-12-11T06:01:40;97301.41;;;6.81;100.00
68634;BME280;55625;47.072;22.192;2022-12-11T06:04:08;97308.59;;;6.38;100.00
68634;BME280;55625;47.072;22.192;2022-12-11T06:06:35;97317.72;;;6.18;100.00
68634;BME280;55625;47.072;22.192;2022-12-11T06:09:03;97327.28;;;5.97;100.00
68634;BME280;55625;47.072;22.192;2022-12-11T06:11:31;97338.25;;;5.95;100.00
68634;BME280;55625;47.072;22.192;2022-12-11T06:13:59;97349.19;;;5.69;100.00
68634;BME280;55625;47.072;22.192;2022-12-11T06:16:25;97350.63;;;5.64;100.00
68634;BME280;55625;47.072;22.192;2022-12-11T06:18:51;97357.38;;;5.34;100.00
68634;BME280;55625;47.072;22.192;2022-12-11T06:21:22;97365.91;;;5.06;100.00
68634;BME280;55625;47.072;22.192;2022-12-11T06:23:50;97386.66;;;5.09;100.00
68634;BME280;55625;47.072;22.192;2022-12-11T06:26:17;97407.03;;;4.85;100.00
68634;BME280;55625;47.072;22.192;2022-12-11T06:28:44;97422.97;;;4.79;100.00
68634;BME280;55625;47.072;22.192;2022-12-11T06:31:11;97424.38;;;4.75;100.00
68634;BME280;55625;47.072;22.192;2022-12-11T06:33:37;97420.03;;;4.55;100.00
68634;BME280;55625;47.072;22.192;2022-12-11T06:36:05;97433.94;;;4.31;100.00
68634;BME280;55625;47.072;22.192;2022-12-11T06:38:32;97448.13;;;4.28;100.00
68634;BME280;55625;47.072;22.192;2022-12-11T06:41:00;97456.38;;;4.13;100.00
68634;BME280;55625;47.072;22.192;2022-12-11T06:43:30;97478.66;;;3.98;100.00
68634;BME280;55625;47.072;22.192;2022-12-11T06:45:56;97482.38;;;3.95;100.00
68634;BME280;55625;47.072;22.192;2022-12-11T06:48:22;97499.88;;;3.99;100.00
68634;BME280;55625;47.072;22.192;2022-12-11T06:50:48;97500.47;;;3.94;100.00
68634;BME280;55625;47.072;22.192;2022-12-11T06:53:14;97513.53;;;3.79;100.00
68634;BME280;55625;47.072;22.192;2022-12-11T06:55:41;97529.06;;;3.71;100.00
68634;BME280;55625;47.072;22.192;2022-12-11T06:58:08;97543.03;;;3.62;100.00
68634;BME280;55625;47.072;22.192;2022-12-11T07:00:35;97551.09;;;3.51;100.00
68634;BME280;55625;47.072;22.192;2022-12-11T07:03:01;97563.69;;;3.46;100.00
68634;BME280;55625;47.072;22.192;2022-12-11T07:05:29;97578.56;;;3.34;100.00
68634;BME280;55625;47.072;22.192;2022-12-11T07:07:55;97579.94;;;3.29;100.00
68634;BME280;55625;47.072;22.192;2022-12-11T07:10:22;97599.97;;;3.19;100.00
68634;BME280;55625;47.072;22.192;2022-12-11T07:12:48;97619.97;;;3.08;100.00
68634;BME280;55625;47.072;22.192;2022-12-11T07:15:14;97627.94;;;2.97;100.00
68634;BME280;55625;47.072;22.192;2022-12-11T07:17:40;97638.69;;;2.98;100.00
68634;BME280;55625;47.072;22.192;2022-12-11T07:20:06;97643.97;;;2.96;100.00
68634;BME280;55625;47.072;22.192;2022-12-11T07:22:33;97648.47;;;2.94;100.00
68634;BME280;55625;47.072;22.192;2022-12-11T07:24:59;97650.63;;;2.90;100.00
68634;BME280;55625;47.072;22.192;2022-12-11T07:27:25;97652.44;;;2.84;100.00
68634;BME280;55625;47.072;22.192;2022-12-11T07:29:51;97662.19;;;2.79;100.00
68634;BME280;55625;47.072;22.192;2022-12-11T07:32:17;97674.97;;;2.80;100.00
68634;BME280;55625;47.072;22.192;2022-12-11T07:34:42;97684.47;;;2.83;100.00
68634;BME280;55625;47.072;22.192;2022-12-11T07:37:08;97681.91;;;2.75;100.00
68634;BME280;55625;47.072;22.192;2022-12-11T07:39:34;97688.06;;;2.70;100.00
68634;BME280;55625;47.072;22.192;2022-12-11T07:42:00;97697.03;;;2.65;100.00
68634;BME280;55625;47.072;22.192;2022-12-11T07:44:26;97723.28;;;2.59;100.00
68634;BME280;55625;47.072;22.192;2022-12-11T07:46:51;97727.09;;;2.52;100.00
68634;BME280;55625;47.072;22.192;2022-12-11T07:49:17;97736.47;;;2.58;100.00
68634;BME280;55625;47.072;22.192;2022-12-11T07:51:43;97757.31;;;2.57;100.00
68634;BME280;55625;47.072;22.192;2022-12-11T07:54:14;97763.59;;;2.61;100.00
68634;BME280;55625;47.072;22.192;2022-12-11T07:56:45;97786.09;;;2.45;100.00
68634;BME280;55625;47.072;22.192;2022-12-11T07:59:12;97795.16;;;2.49;100.00
68634;BME280;55625;47.072;22.192;2022-12-11T08:01:39;97803.22;;;2.47;100.00
68634;BME280;55625;47.072;22.192;2022-12-11T08:04:09;97810.47;;;2.44;100.00
68634;BME280;55625;47.072;22.192;2022-12-11T08:06:38;97823.34;;;2.42;100.00
68634;BME280;55625;47.072;22.192;2022-12-11T08:09:09;97835.44;;;2.39;100.00
68634;BME280;55625;47.072;22.192;2022-12-11T08:11:35;97841.63;;;2.46;100.00
68634;BME280;55625;47.072;22.192;2022-12-11T08:14:00;97854.84;;;2.46;100.00
68634;BME280;55625;47.072;22.192;2022-12-11T08:16:27;97856.88;;;2.45;100.00
68634;BME280;55625;47.072;22.192;2022-12-11T08:18:54;97866.38;;;2.48;100.00
68634;BME280;55625;47.072;22.192;2022-12-11T08:21:24;97861.31;;;2.43;100.00
68634;BME280;55625;47.072;22.192;2022-12-11T08:23:52;97874.88;;;2.44;100.00
68634;BME280;55625;47.072;22.192;2022-12-11T08:26:25;97875.81;;;2.54;100.00
68634;BME280;55625;47.072;22.192;2022-12-11T08:28:52;97891.25;;;2.46;100.00
68634;BME280;55625;47.072;22.192;2022-12-11T08:31:18;97900.50;;;2.43;100.00
68634;BME280;55625;47.072;22.192;2022-12-11T08:33:45;97906.47;;;2.45;100.00
68634;BME280;55625;47.072;22.192;2022-12-11T08:36:15;97916.88;;;2.15;100.00
68634;BME280;55625;47.072;22.192;2022-12-11T08:38:41;97915.13;;;2.22;100.00
68634;BME280;55625;47.072;22.192;2022-12-11T08:43:41;97930.28;;;2.37;100.00
68634;BME280;55625;47.072;22.192;2022-12-11T08:46:08;97935.88;;;2.37;100.00
68634;BME280;55625;47.072;22.192;2022-12-11T08:48:36;97945.41;;;2.39;100.00
68634;BME280;55625;47.072;22.192;2022-12-11T08:51:05;97946.81;;;2.31;100.00
68634;BME280;55625;47.072;22.192;2022-12-11T08:53:32;97949.88;;;2.37;100.00
68634;BME280;55625;47.072;22.192;2022-12-11T08:56:07;97942.59;;;2.39;100.00
68634;BME280;55625;47.072;22.192;2022-12-11T08:58:33;97942.16;;;2.41;100.00
68634;BME280;55625;47.072;22.192;2022-12-11T09:01:19;97937.69;;;2.43;100.00
68634;BME280;55625;47.072;22.192;2022-12-11T09:03:47;97942.78;;;2.61;100.00
68634;BME280;55625;47.072;22.192;2022-12-11T09:06:16;97954.09;;;2.58;100.00
68634;BME280;55625;47.072;22.192;2022-12-11T09:08:44;97957.91;;;2.64;100.00
68634;BME280;55625;47.072;22.192;2022-12-11T09:11:15;97966.88;;;2.71;100.00
68634;BME280;55625;47.072;22.192;2022-12-11T09:13:41;97966.88;;;2.71;100.00
68634;BME280;55625;47.072;22.192;2022-12-11T09:16:11;97972.81;;;2.61;100.00
68634;BME280;55625;47.072;22.192;2022-12-11T09:18:38;97968.63;;;2.53;100.00
68634;BME280;55625;47.072;22.192;2022-12-11T09:21:08;97970.44;;;2.59;100.00
68634;BME280;55625;47.072;22.192;2022-12-11T09:23:35;97965.97;;;2.62;100.00
68634;BME280;55625;47.072;22.192;2022-12-11T09:26:11;97974.13;;;2.56;100.00
68634;BME280;55625;47.072;22.192;2022-12-11T09:28:37;97980.44;;;2.44;100.00
68634;BME280;55625;47.072;22.192;2022-12-11T09:31:34;97987.38;;;2.39;100.00
68634;BME280;55625;47.072;22.192;2022-12-11T09:34:07;97988.38;;;2.33;100.00
68634;BME280;55625;47.072;22.192;2022-12-11T09:36:33;98004.81;;;2.31;100.00
68634;BME280;55625;47.072;22.192;2022-12-11T09:39:02;98008.84;;;2.30;100.00
68634;BME280;55625;47.072;22.192;2022-12-11T09:44:18;98018.38;;;2.32;100.00
68634;BME280;55625;47.072;22.192;2022-12-11T09:46:46;98020.91;;;2.27;100.00
68634;BME280;55625;47.072;22.192;2022-12-11T09:52:19;98026.41;;;2.30;100.00
68634;BME280;55625;47.072;22.192;2022-12-11T09:55:00;98033.50;;;2.35;100.00
68634;BME280;55625;47.072;22.192;2022-12-11T09:58:12;98037.16;;;2.32;100.00
68634;BME280;55625;47.072;22.192;2022-12-11T10:15:50;98064.22;;;2.06;100.00
68634;BME280;55625;47.072;22.192;2022-12-11T10:18:19;98068.31;;;2.01;100.00
68634;BME280;55625;47.072;22.192;2022-12-11T10:20:50;98071.56;;;2.00;100.00
68634;BME280;55625;47.072;22.192;2022-12-11T10:23:21;98066.50;;;1.95;100.00
68634;BME280;55625;47.072;22.192;2022-12-11T10:26:01;98068.50;;;1.94;100.00
68634;BME280;55625;47.072;22.192;2022-12-11T10:28:28;98069.28;;;1.95;100.00
68634;BME280;55625;47.072;22.192;2022-12-11T10:34:14;98074.72;;;2.18;100.00
68634;BME280;55625;47.072;22.192;2022-12-11T10:36:43;98084.00;;;2.15;100.00
68634;BME280;55625;47.072;22.192;2022-12-11T10:39:17;98083.47;;;2.20;100.00
68634;BME280;55625;47.072;22.192;2022-12-11T10:41:54;98088.06;;;2.10;100.00
68634;BME280;55625;47.072;22.192;2022-12-11T10:44:28;98103.03;;;2.04;100.00
68634;BME280;55625;47.072;22.192;2022-12-11T10:47:11;98093.06;;;2.03;100.00
68634;BME280;55625;47.072;22.192;2022-12-11T10:49:50;98090.78;;;1.98;100.00
68634;BME280;55625;47.072;22.192;2022-12-11T10:52:59;98085.28;;;1.94;100.00
68634;BME280;55625;47.072;22.192;2022-12-11T10:55:21;98089.13;;;1.84;100.00
68634;BME280;55625;47.072;22.192;2022-12-11T10:57:59;98091.53;;;1.82;100.00
68634;BME280;55625;47.072;22.192;2022-12-11T11:00:37;98084.72;;;1.83;100.00
68634;BME280;55625;47.072;22.192;2022-12-11T11:03:26;98081.44;;;1.88;100.00
68634;BME280;55625;47.072;22.192;2022-12-11T11:06:17;98087.03;;;1.88;100.00
68634;BME280;55625;47.072;22.192;2022-12-11T11:08:52;98089.47;;;1.86;100.00
68634;BME280;55625;47.072;22.192;2022-12-11T11:11:33;98086.94;;;1.92;100.00
68634;BME280;55625;47.072;22.192;2022-12-11T11:14:19;98092.09;;;1.93;100.00
68634;BME280;55625;47.072;22.192;2022-12-11T11:16:48;98098.03;;;1.95;100.00
68634;BME280;55625;47.072;22.192;2022-12-11T11:22:16;98099.78;;;1.89;100.00
68634;BME280;55625;47.072;22.192;2022-12-11T11:25:01;98099.94;;;1.82;100.00
68634;BME280;55625;47.072;22.192;2022-12-11T11:30:33;98103.16;;;1.80;100.00
68634;BME280;55625;47.072;22.192;2022-12-11T11:33:13;98109.53;;;1.81;100.00
68634;BME280;55625;47.072;22.192;2022-12-11T11:36:00;98098.78;;;1.79;100.00
68634;BME280;55625;47.072;22.192;2022-12-11T11:38:39;98103.47;;;1.86;100.00
68634;BME280;55625;47.072;22.192;2022-12-11T11:41:28;98110.28;;;1.85;100.00
68634;BME280;55625;47.072;22.192;2022-12-11T11:44:00;98098.22;;;1.88;100.00
68634;BME280;55625;47.072;22.192;2022-12-11T11:46:34;98107.47;;;2.01;100.00
68634;BME280;55625;47.072;22.192;2022-12-11T11:49:18;98108.72;;;2.00;100.00
68634;BME280;55625;47.072;22.192;2022-12-11T11:54:36;98111.19;;;2.14;100.00
68634;BME280;55625;47.072;22.192;2022-12-11T11:57:41;98115.03;;;2.21;100.00
68634;BME280;55625;47.072;22.192;2022-12-11T12:00:23;98129.53;;;2.32;100.00
68634;BME280;55625;47.072;22.192;2022-12-11T12:02:58;98136.63;;;2.20;100.00
68634;BME280;55625;47.072;22.192;2022-12-11T12:12:10;98125.56;;;2.13;100.00
68634;BME280;55625;47.072;22.192;2022-12-11T12:17:27;98123.41;;;2.04;100.00
68634;BME280;55625;47.072;22.192;2022-12-11T12:28:50;98125.66;;;2.09;100.00
68634;BME280;55625;47.072;22.192;2022-12-11T12:34:36;98137.81;;;2.03;100.00
68634;BME280;55625;47.072;22.192;2022-12-11T12:48:08;98145.94;;;1.97;100.00
68634;BME280;55625;47.072;22.192;2022-12-11T12:50:42;98147.97;;;1.97;100.00
68634;BME280;55625;47.072;22.192;2022-12-11T12:53:18;98151.91;;;1.99;100.00
68634;BME280;55625;47.072;22.192;2022-12-11T12:55:46;98160.81;;;1.94;100.00
68634;BME280;55625;47.072;22.192;2022-12-11T13:01:26;98168.31;;;1.97;100.00
68634;BME280;55625;47.072;22.192;2022-12-11T13:04:02;98162.38;;;1.95;100.00
68634;BME280;55625;47.072;22.192;2022-12-11T13:06:43;98166.31;;;1.98;100.00
68634;BME280;55625;47.072;22.192;2022-12-11T13:11:45;98167.47;;;2.00;100.00
68634;BME280;55625;47.072;22.192;2022-12-11T13:16:51;98178.47;;;1.91;100.00
68634;BME280;55625;47.072;22.192;2022-12-11T13:22:24;98187.91;;;1.97;100.00
68634;BME280;55625;47.072;22.192;2022-12-11T13:24:58;98182.84;;;1.92;100.00
68634;BME280;55625;47.072;22.192;2022-12-11T13:30:27;98184.50;;;1.90;100.00
68634;BME280;55625;47.072;22.192;2022-12-11T13:33:16;98186.50;;;1.89;100.00
68634;BME280;55625;47.072;22.192;2022-12-11T13:35:43;98192.88;;;1.90;100.00
68634;BME280;55625;47.072;22.192;2022-12-11T13:38:18;98194.53;;;1.87;100.00
68634;BME280;55625;47.072;22.192;2022-12-11T13:40:52;98193.66;;;1.90;100.00
68634;BME280;55625;47.072;22.192;2022-12-11T13:43:23;98203.63;;;1.91;100.00
68634;BME280;55625;47.072;22.192;2022-12-11T13:46:03;98204.50;;;1.88;100.00
68634;BME280;55625;47.072;22.192;2022-12-11T13:48:51;98208.88;;;1.89;100.00
68634;BME280;55625;47.072;22.192;2022-12-11T13:51:23;98201.41;;;1.82;100.00
68634;BME280;55625;47.072;22.192;2022-12-11T13:54:17;98200.63;;;1.82;100.00
68634;BME280;55625;47.072;22.192;2022-12-11T13:59:36;98210.22;;;1.81;100.00
68634;BME280;55625;47.072;22.192;2022-12-11T14:02:24;98226.16;;;1.84;100.00
68634;BME280;55625;47.072;22.192;2022-12-11T14:04:57;98232.59;;;1.81;100.00
68634;BME280;55625;47.072;22.192;2022-12-11T14:07:31;98225.34;;;1.83;100.00
68634;BME280;55625;47.072;22.192;2022-12-11T14:10:15;98229.31;;;1.86;100.00
68634;BME280;55625;47.072;22.192;2022-12-11T14:13:02;98241.34;;;1.83;100.00
68634;BME280;55625;47.072;22.192;2022-12-11T14:15:31;98230.59;;;1.81;100.00
68634;BME280;55625;47.072;22.192;2022-12-11T14:17:58;98234.25;;;1.78;100.00
68634;BME280;55625;47.072;22.192;2022-12-11T14:20:28;98235.81;;;1.79;100.00
68634;BME280;55625;47.072;22.192;2022-12-11T14:23:22;98238.25;;;1.77;100.00
68634;BME280;55625;47.072;22.192;2022-12-11T14:26:29;98251.38;;;1.80;100.00
68634;BME280;55625;47.072;22.192;2022-12-11T14:28:55;98254.97;;;1.81;100.00
68634;BME280;55625;47.072;22.192;2022-12-11T14:36:34;98250.94;;;1.82;100.00
68634;BME280;55625;47.072;22.192;2022-12-11T14:39:11;98256.53;;;1.82;100.00
68634;BME280;55625;47.072;22.192;2022-12-11T14:41:47;98264.09;;;1.85;100.00
68634;BME280;55625;47.072;22.192;2022-12-11T14:44:18;98262.53;;;1.84;100.00
68634;BME280;55625;47.072;22.192;2022-12-11T14:46:49;98268.13;;;1.84;100.00
68634;BME280;55625;47.072;22.192;2022-12-11T14:52:28;98278.78;;;1.89;100.00
68634;BME280;55625;47.072;22.192;2022-12-11T14:55:22;98276.44;;;1.88;100.00
68634;BME280;55625;47.072;22.192;2022-12-11T14:57:54;98281.59;;;1.89;100.00
68634;BME280;55625;47.072;22.192;2022-12-11T15:00:33;98286.47;;;1.85;100.00
68634;BME280;55625;47.072;22.192;2022-12-11T15:05:30;98290.50;;;1.84;100.00
68634;BME280;55625;47.072;22.192;2022-12-11T15:07:59;98294.47;;;1.83;100.00